createdAt,value
2023-04-20T05:46:03.113Z,12.50
2023-04-20T05:48:48.612Z,13.85
2023-04-20T05:51:34.298Z,12.02
2023-04-20T05:54:20.472Z,13.30
2023-04-20T05:57:06.249Z,13.00
2023-04-20T05:59:51.773Z,10.60
2023-04-20T06:02:37.520Z,13.38
2023-04-20T06:05:23.270Z,11.88
2023-04-20T06:08:09.836Z,11.55
2023-04-20T06:10:59.297Z,10.43
2023-04-20T06:13:44.984Z,11.52
2023-04-20T06:16:30.584Z,11.75
2023-04-20T06:19:16.454Z,12.20
2023-04-20T06:22:09.062Z,11.50
2023-04-20T06:24:54.793Z,13.57
2023-04-20T06:27:40.001Z,15.82
2023-04-20T06:30:25.829Z,16.50
2023-04-20T06:33:17.065Z,16.17
2023-04-20T06:36:07.054Z,17.65
2023-04-20T06:38:52.491Z,14.00
2023-04-20T06:41:39.287Z,14.40
2023-04-20T06:44:24.997Z,14.85
2023-04-20T06:47:12.082Z,13.70
2023-04-20T06:50:04.214Z,13.15
2023-04-20T06:52:51.825Z,12.90
2023-04-20T06:55:38.900Z,8.65
2023-04-20T06:58:25.103Z,9.30
2023-04-20T07:01:11.070Z,9.07
2023-04-20T07:03:57.127Z,9.38
2023-04-20T07:06:42.711Z,9.15
2023-04-20T07:09:28.477Z,7.82
2023-04-20T07:12:15.848Z,7.70
2023-04-20T07:15:02.887Z,7.60
2023-04-20T07:17:48.393Z,9.10
2023-04-20T07:20:33.488Z,7.45
2023-04-20T07:23:21.578Z,7.60
2023-04-20T07:26:08.337Z,8.05
2023-04-20T07:28:54.728Z,7.47
2023-04-20T07:31:43.263Z,7.43
2023-04-20T07:34:29.905Z,7.60
2023-04-20T07:37:15.889Z,8.00
2023-04-20T07:40:09.925Z,7.75
2023-04-20T07:42:56.214Z,8.13
2023-04-20T07:45:42.060Z,7.57
2023-04-20T07:48:27.408Z,7.75
2023-04-20T07:51:13.301Z,10.38
2023-04-20T07:53:58.812Z,8.77
2023-04-20T07:56:44.040Z,9.40
2023-04-20T07:59:33.140Z,9.48
2023-04-20T08:02:18.943Z,7.62
2023-04-20T08:05:06.264Z,7.62
2023-04-20T08:07:51.527Z,7.78
2023-04-20T08:10:38.227Z,8.30
2023-04-20T08:13:23.614Z,8.13
2023-04-20T08:16:09.400Z,6.87
2023-04-20T08:18:55.037Z,8.05
2023-04-20T08:21:41.183Z,8.13
2023-04-20T08:24:26.867Z,8.20
2023-04-20T08:27:14.031Z,7.68
2023-04-20T08:29:59.500Z,6.97
2023-04-20T08:32:45.041Z,7.30
2023-04-20T08:35:30.685Z,6.68
2023-04-20T08:38:20.670Z,7.12
2023-04-20T08:41:08.902Z,7.10
2023-04-20T08:43:57.474Z,6.97
2023-04-20T08:46:47.711Z,6.72
2023-04-20T08:49:33.983Z,6.40
2023-04-20T08:52:19.741Z,7.05
2023-04-20T08:55:05.565Z,6.47
2023-04-20T08:57:51.334Z,6.65
2023-04-20T09:00:50.765Z,8.95
2023-04-20T09:03:39.004Z,6.32
2023-04-20T09:06:24.618Z,6.12
2023-04-20T09:09:12.301Z,6.87
2023-04-20T09:12:02.951Z,6.10
2023-04-20T09:14:48.882Z,6.97
2023-04-20T09:17:36.266Z,5.87
2023-04-20T09:20:34.160Z,6.90
2023-04-20T09:23:21.704Z,5.65
2023-04-20T09:26:18.066Z,6.05
2023-04-20T09:29:04.084Z,6.03
2023-04-20T09:31:50.442Z,5.75
2023-04-20T09:34:45.339Z,4.70
2023-04-20T09:37:31.768Z,5.57
2023-04-20T09:40:18.311Z,4.97
2023-04-20T09:43:19.921Z,5.90
2023-04-20T09:46:06.371Z,5.50
2023-04-20T09:48:52.249Z,5.35
2023-04-20T09:51:45.144Z,6.35
2023-04-20T09:54:31.923Z,4.90
2023-04-20T09:57:19.410Z,5.62
2023-04-20T10:00:10.910Z,5.25
2023-04-20T10:02:57.556Z,4.80
2023-04-20T10:05:43.591Z,4.87
2023-04-20T10:08:41.478Z,4.10
2023-04-20T10:11:49.033Z,4.65
2023-04-20T10:14:38.861Z,4.30
2023-04-20T10:17:31.754Z,4.18
2023-04-20T10:20:27.555Z,4.40
2023-04-20T10:23:21.265Z,4.75
2023-04-20T10:26:08.241Z,4.25
2023-04-20T10:28:53.468Z,6.22
2023-04-20T10:31:40.752Z,4.57
2023-04-20T10:34:33.834Z,5.10
2023-04-20T10:40:08.123Z,5.37
2023-04-20T10:42:53.967Z,5.25
2023-04-20T10:45:40.444Z,5.70
2023-04-20T10:48:26.560Z,4.75
2023-04-20T10:51:11.936Z,5.87
2023-04-20T10:54:06.757Z,5.50
2023-04-20T10:56:53.160Z,5.68
2023-04-20T10:59:39.143Z,5.68
2023-04-20T11:02:24.556Z,6.22
2023-04-20T11:05:15.094Z,6.05
2023-04-20T11:08:01.505Z,6.05
2023-04-20T11:10:47.129Z,5.90
2023-04-20T11:13:33.042Z,5.57
2023-04-20T11:16:19.549Z,5.22
2023-04-20T11:19:06.219Z,4.65
2023-04-20T11:21:54.882Z,4.93
2023-04-20T11:24:46.657Z,6.20
2023-04-20T11:27:34.067Z,6.00
2023-04-20T11:30:19.750Z,8.55
